createdAt,value
2017-05-03T00:01:02.270Z,8.10
2017-05-03T00:03:32.255Z,8.00
2017-05-03T00:06:01.669Z,8.10
2017-05-03T00:08:30.896Z,8.00
2017-05-03T00:11:00.079Z,8.00
2017-05-03T00:13:29.292Z,8.00
2017-05-03T00:15:58.498Z,8.00
2017-05-03T00:18:27.707Z,8.00
2017-05-03T00:20:56.905Z,8.00
2017-05-03T00:23:26.107Z,8.00
2017-05-03T00:25:55.420Z,8.00
2017-05-03T00:28:24.624Z,8.00
2017-05-03T00:30:53.936Z,8.00
2017-05-03T00:33:23.921Z,8.00
2017-05-03T00:35:53.812Z,8.10
2017-05-03T00:38:23.031Z,8.10
2017-05-03T00:40:52.243Z,8.10
2017-05-03T00:43:22.479Z,8.00
2017-05-03T00:45:51.687Z,8.00
2017-05-03T00:48:20.986Z,8.00
2017-05-03T00:50:50.935Z,8.00
2017-05-03T00:53:20.131Z,8.00
2017-05-03T00:55:49.364Z,8.00
2017-05-03T00:58:18.575Z,8.00
2017-05-03T01:00:47.779Z,8.00
2017-05-03T01:03:17.073Z,8.00
2017-05-03T01:05:46.292Z,8.10
2017-05-03T01:08:15.507Z,8.10
2017-05-03T01:10:45.463Z,8.00
2017-05-03T01:13:14.667Z,8.00
2017-05-03T01:15:43.903Z,7.90
2017-05-03T01:18:13.145Z,8.00
2017-05-03T01:20:43.055Z,8.10
2017-05-03T01:23:12.276Z,8.00
2017-05-03T01:25:41.623Z,8.00
2017-05-03T01:28:10.819Z,8.00
2017-05-03T01:30:39.675Z,8.00
2017-05-03T01:33:08.892Z,7.90
2017-05-03T01:35:38.084Z,7.90
2017-05-03T01:38:07.433Z,7.90
2017-05-03T01:40:37.324Z,7.90
2017-05-03T01:43:06.531Z,7.80
2017-05-03T01:45:35.739Z,7.70
2017-05-03T01:48:04.939Z,7.80
2017-05-03T01:50:34.555Z,7.70
2017-05-03T01:53:03.744Z,7.80
2017-05-03T01:55:32.947Z,7.80
2017-05-03T01:58:02.952Z,7.80
2017-05-03T02:00:32.148Z,7.80
2017-05-03T02:03:01.383Z,7.90
2017-05-03T02:05:30.583Z,7.90
2017-05-03T02:07:59.781Z,7.80
2017-05-03T02:10:29.731Z,7.80
2017-05-03T02:12:58.938Z,7.80
2017-05-03T02:15:28.856Z,7.80
2017-05-03T02:17:58.068Z,7.80
2017-05-03T02:20:27.466Z,7.80
2017-05-03T02:22:56.667Z,7.80
2017-05-03T02:25:25.881Z,7.80
2017-05-03T02:27:55.088Z,7.70
2017-05-03T02:30:24.372Z,7.70
2017-05-03T02:32:53.872Z,7.70
2017-05-03T02:35:23.071Z,7.70
2017-05-03T02:37:52.280Z,7.70
2017-05-03T02:40:21.479Z,7.70
2017-05-03T02:42:50.705Z,7.70
2017-05-03T02:45:20.639Z,7.70
2017-05-03T02:47:50.066Z,7.70
2017-05-03T02:50:19.308Z,7.70
2017-05-03T02:52:49.279Z,7.70
2017-05-03T02:55:18.496Z,7.70
2017-05-03T02:57:47.881Z,7.60
2017-05-03T03:00:17.194Z,7.60
2017-05-03T03:02:46.423Z,7.60
2017-05-03T03:05:15.615Z,7.60
2017-05-03T03:07:44.829Z,7.60
2017-05-03T03:10:14.035Z,7.70
2017-05-03T03:12:43.255Z,7.70
2017-05-03T03:15:13.222Z,7.70
2017-05-03T03:17:42.421Z,7.70
2017-05-03T03:20:11.641Z,7.60
2017-05-03T03:22:40.855Z,7.60
2017-05-03T03:25:10.132Z,7.60
2017-05-03T03:27:39.345Z,7.60
2017-05-03T03:30:08.563Z,7.70
2017-05-03T03:32:38.511Z,7.60
2017-05-03T03:35:07.731Z,7.70
2017-05-03T03:37:36.923Z,7.70
2017-05-03T03:40:06.131Z,7.70
2017-05-03T03:42:35.352Z,7.70
2017-05-03T03:45:04.579Z,7.60
2017-05-03T03:47:34.524Z,7.50
2017-05-03T03:50:03.711Z,7.60
2017-05-03T03:52:32.971Z,7.70
2017-05-03T03:55:02.188Z,7.60
2017-05-03T03:57:31.373Z,7.60
2017-05-03T04:00:00.570Z,7.60
2017-05-03T04:02:29.792Z,7.70
2017-05-03T04:04:59.945Z,7.60
2017-05-03T04:07:29.174Z,7.70
2017-05-03T04:09:58.365Z,7.70
2017-05-03T04:12:27.569Z,7.70
2017-05-03T04:14:56.797Z,7.70
2017-05-03T04:17:26.140Z,7.60
2017-05-03T04:19:55.349Z,7.50
2017-05-03T04:22:24.551Z,7.50
2017-05-03T04:24:55.196Z,7.60
2017-05-03T04:27:24.419Z,7.60
2017-05-03T04:29:53.752Z,7.70
2017-05-03T04:32:23.668Z,7.60
2017-05-03T04:34:53.626Z,7.60
2017-05-03T04:37:22.903Z,7.60
2017-05-03T04:39:52.100Z,7.60
2017-05-03T04:42:22.040Z,7.60
2017-05-03T04:44:51.259Z,7.60
2017-05-03T04:47:21.134Z,7.60
2017-05-03T04:49:51.136Z,7.60
2017-05-03T04:52:21.120Z,7.60
2017-05-03T04:54:51.018Z,7.70
2017-05-03T04:57:20.254Z,7.80
2017-05-03T04:59:49.448Z,7.80
2017-05-03T05:02:18.655Z,7.80
2017-05-03T05:04:47.861Z,7.90
2017-05-03T05:07:17.751Z,8.00
2017-05-03T05:09:46.936Z,8.00
2017-05-03T05:12:16.142Z,8.00
2017-05-03T05:14:45.344Z,8.00
2017-05-03T05:17:14.549Z,8.00
2017-05-03T05:19:43.744Z,8.10
2017-05-03T05:22:12.959Z,8.10
2017-05-03T05:24:42.264Z,8.20
2017-05-03T05:27:11.470Z,8.20
2017-05-03T05:29:40.664Z,8.20
2017-05-03T05:32:09.856Z,8.20
2017-05-03T05:34:39.079Z,8.20
2017-05-03T05:37:09.031Z,8.20
2017-05-03T05:39:38.225Z,8.30
2017-05-03T05:42:07.415Z,8.30
2017-05-03T05:44:36.626Z,8.30
2017-05-03T05:47:07.267Z,8.20
2017-05-03T05:49:36.459Z,8.20
2017-05-03T05:52:05.668Z,8.20
2017-05-03T05:54:34.871Z,8.20
2017-05-03T05:57:04.797Z,8.20
2017-05-03T05:59:33.983Z,8.20
2017-05-03T06:02:03.188Z,8.20
2017-05-03T06:04:32.399Z,8.20
2017-05-03T06:07:01.599Z,8.30
2017-05-03T06:09:31.491Z,8.30
2017-05-03T06:12:00.735Z,8.30
2017-05-03T06:14:29.945Z,8.40
2017-05-03T06:16:59.143Z,8.50
2017-05-03T06:19:29.080Z,8.50
2017-05-03T06:21:59.041Z,8.50
2017-05-03T06:24:28.231Z,8.50
2017-05-03T06:26:57.425Z,8.60
2017-05-03T06:29:26.461Z,8.70
2017-05-03T06:31:55.646Z,8.70
2017-05-03T06:34:24.985Z,8.90
2017-05-03T06:36:54.928Z,9.00
2017-05-03T06:39:24.154Z,9.10
2017-05-03T06:41:54.276Z,9.20
2017-05-03T06:44:23.464Z,9.20
2017-05-03T06:46:52.656Z,9.30
2017-05-03T06:49:21.868Z,9.30
2017-05-03T06:51:51.124Z,9.50
2017-05-03T06:54:21.086Z,9.70
2017-05-03T06:56:50.296Z,9.90
2017-05-03T06:59:19.496Z,9.90
2017-05-03T07:01:48.724Z,10.00
2017-05-03T07:04:18.614Z,10.20
2017-05-03T07:06:47.999Z,10.20
2017-05-03T07:09:17.201Z,10.40
2017-05-03T07:11:46.406Z,10.60
2017-05-03T07:14:15.623Z,10.50
2017-05-03T07:16:44.825Z,10.70
2017-05-03T07:19:14.181Z,10.80
2017-05-03T07:21:43.395Z,11.00
2017-05-03T07:24:12.608Z,11.30
2017-05-03T07:26:42.513Z,11.40
2017-05-03T07:29:11.716Z,11.30
2017-05-03T07:31:40.926Z,11.20
2017-05-03T07:34:10.131Z,11.30
2017-05-03T07:36:39.355Z,11.50
2017-05-03T07:39:08.575Z,11.50
2017-05-03T07:41:38.515Z,11.50
2017-05-03T07:44:07.720Z,11.60
2017-05-03T07:46:36.923Z,11.80
2017-05-03T07:49:06.127Z,11.80
2017-05-03T07:51:35.383Z,11.80
2017-05-03T07:54:05.325Z,11.70
2017-05-03T07:56:34.556Z,11.60
2017-05-03T07:59:03.791Z,11.50
2017-05-03T08:01:33.778Z,11.50
2017-05-03T08:04:02.991Z,11.60
2017-05-03T08:06:32.208Z,11.60
2017-05-03T08:09:02.159Z,11.60
2017-05-03T08:11:31.363Z,11.50
2017-05-03T08:14:00.588Z,11.30
2017-05-03T08:16:29.819Z,11.30
2017-05-03T08:18:59.067Z,11.30
2017-05-03T08:21:28.260Z,11.20
2017-05-03T08:23:57.453Z,11.10
2017-05-03T08:26:26.648Z,11.10
2017-05-03T08:28:56.558Z,11.10
2017-05-03T08:31:26.505Z,11.00
2017-05-03T08:33:56.384Z,11.00
2017-05-03T08:36:26.336Z,10.90
2017-05-03T08:38:55.531Z,11.00
2017-05-03T08:41:24.738Z,11.00
2017-05-03T08:43:53.962Z,11.00
2017-05-03T08:46:23.180Z,11.10
2017-05-03T08:48:52.388Z,11.30
2017-05-03T08:51:22.324Z,11.30
2017-05-03T08:53:51.537Z,11.50
2017-05-03T08:56:20.751Z,11.60
2017-05-03T08:58:49.975Z,11.70
2017-05-03T09:01:19.163Z,11.90
2017-05-03T09:03:48.336Z,12.10
2017-05-03T09:06:17.527Z,12.20
2017-05-03T09:08:46.766Z,12.20
2017-05-03T09:11:15.968Z,12.50
2017-05-03T09:13:45.171Z,12.70
2017-05-03T09:16:14.364Z,12.70
2017-05-03T09:18:43.583Z,12.50
2017-05-03T09:21:12.784Z,12.70
2017-05-03T09:23:42.064Z,13.00
2017-05-03T09:26:11.264Z,13.10
2017-05-03T09:28:40.648Z,13.30
2017-05-03T09:31:09.842Z,13.30
2017-05-03T09:33:39.062Z,13.10
2017-05-03T09:36:08.272Z,13.00
2017-05-03T09:38:37.467Z,13.30
2017-05-03T09:41:06.662Z,13.80
2017-05-03T09:43:35.884Z,13.70
2017-05-03T09:46:05.105Z,13.40
2017-05-03T09:48:34.438Z,13.40
2017-05-03T09:51:05.072Z,13.40
2017-05-03T09:53:34.329Z,13.30
2017-05-03T09:56:03.515Z,13.40
2017-05-03T09:58:32.748Z,13.40
2017-05-03T10:01:02.039Z,13.60
2017-05-03T10:03:32.064Z,13.40
2017-05-03T10:06:02.008Z,13.70
2017-05-03T10:08:31.239Z,13.80
2017-05-03T10:11:00.447Z,13.90
2017-05-03T10:13:29.675Z,14.10
2017-05-03T10:15:59.619Z,14.40
2017-05-03T10:18:28.815Z,14.50
2017-05-03T10:20:58.123Z,14.70
2017-05-03T10:23:27.311Z,14.70
2017-05-03T10:25:56.666Z,14.70
2017-05-03T10:28:25.867Z,14.70
2017-05-03T10:30:55.058Z,14.60
2017-05-03T10:33:24.276Z,14.40
2017-05-03T10:35:53.482Z,14.20
2017-05-03T10:38:22.680Z,14.00
2017-05-03T10:40:51.882Z,13.80
2017-05-03T10:43:21.835Z,13.20
2017-05-03T10:45:51.042Z,13.10
2017-05-03T10:48:20.252Z,13.00
2017-05-03T10:50:49.455Z,13.10
2017-05-03T10:53:18.648Z,13.10
2017-05-03T10:55:47.864Z,13.10
2017-05-03T10:58:17.079Z,13.00
2017-05-03T11:00:46.291Z,13.10
2017-05-03T11:03:15.514Z,13.40
2017-05-03T11:05:44.792Z,13.30
2017-05-03T11:08:13.989Z,13.30
2017-05-03T11:10:43.208Z,13.30
2017-05-03T11:13:13.211Z,13.00
2017-05-03T11:15:43.138Z,12.40
2017-05-03T11:18:13.101Z,12.40
2017-05-03T11:20:42.459Z,12.70
2017-05-03T11:23:12.571Z,12.90
2017-05-03T11:25:42.499Z,13.20
2017-05-03T11:28:12.410Z,13.40
2017-05-03T11:30:42.353Z,12.90
2017-05-03T11:33:11.695Z,12.50
2017-05-03T11:35:40.894Z,12.70
2017-05-03T11:38:10.088Z,12.60
2017-05-03T11:40:39.298Z,12.40
2017-05-03T11:43:08.484Z,12.70
2017-05-03T11:45:37.740Z,12.80
2017-05-03T11:48:07.652Z,12.80
2017-05-03T11:50:37.024Z,12.70
2017-05-03T11:53:06.206Z,12.90
2017-05-03T11:55:35.418Z,13.10
2017-05-03T11:58:04.624Z,12.90
2017-05-03T12:00:33.819Z,12.80
2017-05-03T12:03:03.043Z,12.80
2017-05-03T12:05:32.970Z,13.00
2017-05-03T12:08:02.188Z,12.70
2017-05-03T12:10:31.409Z,12.70
2017-05-03T12:13:00.583Z,12.90
2017-05-03T12:15:29.787Z,13.10
2017-05-03T12:17:59.002Z,13.40
2017-05-03T12:20:28.224Z,13.50
2017-05-03T12:22:57.435Z,13.90
2017-05-03T12:25:26.633Z,13.50
2017-05-03T12:27:55.907Z,13.90
2017-05-03T12:30:25.088Z,14.10
2017-05-03T12:32:54.303Z,13.70
2017-05-03T12:35:23.502Z,13.90
2017-05-03T12:37:52.692Z,13.90
2017-05-03T12:40:22.054Z,13.70
2017-05-03T12:42:52.003Z,13.60
2017-05-03T12:45:21.206Z,13.50
2017-05-03T12:47:50.389Z,13.60
2017-05-03T12:50:19.596Z,13.90
2017-05-03T12:52:48.798Z,14.10
2017-05-03T12:55:17.996Z,14.40
2017-05-03T12:57:47.244Z,14.10
2017-05-03T13:00:16.441Z,14.10
2017-05-03T13:02:45.752Z,14.30
2017-05-03T13:05:14.948Z,13.70
2017-05-03T13:07:44.173Z,14.10
2017-05-03T13:10:14.144Z,14.50
2017-05-03T13:12:43.331Z,14.90
2017-05-03T13:15:12.542Z,14.90
2017-05-03T13:17:41.831Z,14.70
2017-05-03T13:20:11.020Z,14.40
2017-05-03T13:22:40.222Z,14.10
2017-05-03T13:25:09.413Z,14.20
2017-05-03T13:27:38.690Z,14.70
2017-05-03T13:30:08.730Z,14.80
2017-05-03T13:32:37.939Z,14.70
2017-05-03T13:35:07.146Z,14.90
2017-05-03T13:37:36.350Z,15.10
2017-05-03T13:40:05.560Z,14.90
2017-05-03T13:42:34.777Z,14.80
2017-05-03T13:45:03.981Z,14.50
2017-05-03T13:47:33.168Z,14.30
2017-05-03T13:50:02.453Z,14.10
2017-05-03T13:52:32.342Z,13.70
2017-05-03T13:55:01.597Z,13.70
2017-05-03T13:57:30.778Z,13.80
2017-05-03T14:00:00.009Z,13.80
2017-05-03T14:02:29.197Z,14.00
2017-05-03T14:04:58.392Z,13.60
2017-05-03T14:07:28.385Z,14.00
2017-05-03T14:09:57.568Z,13.90
2017-05-03T14:12:26.766Z,14.10
2017-05-03T14:14:55.959Z,13.80
2017-05-03T14:17:25.150Z,14.00
2017-05-03T14:19:54.363Z,14.20
2017-05-03T14:22:23.583Z,14.30
2017-05-03T14:24:52.779Z,14.20
2017-05-03T14:27:21.987Z,14.20
2017-05-03T14:29:51.351Z,13.90
2017-05-03T14:32:20.540Z,13.90
2017-05-03T14:34:49.759Z,14.10
2017-05-03T14:37:18.978Z,14.40
2017-05-03T14:39:48.168Z,14.50
2017-05-03T14:42:17.395Z,14.60
2017-05-03T14:44:46.595Z,15.00
2017-05-03T14:47:15.838Z,15.10
2017-05-03T14:49:45.025Z,14.90
2017-05-03T14:52:14.228Z,14.70
2017-05-03T14:54:43.448Z,14.50
2017-05-03T14:57:12.632Z,14.90
2017-05-03T14:59:41.840Z,14.70
2017-05-03T15:02:11.075Z,14.90
2017-05-03T15:04:40.255Z,15.50
2017-05-03T15:07:09.499Z,16.00
2017-05-03T15:09:38.792Z,16.20
2017-05-03T15:12:08.074Z,16.20
2017-05-03T15:14:37.299Z,15.70
2017-05-03T15:17:06.479Z,15.30
2017-05-03T15:19:35.684Z,15.60
2017-05-03T15:22:04.896Z,15.50
2017-05-03T15:24:34.170Z,15.60
2017-05-03T15:27:03.355Z,15.80
2017-05-03T15:29:32.566Z,16.40
2017-05-03T15:32:01.768Z,16.80
2017-05-03T15:34:30.993Z,17.10
2017-05-03T15:37:00.202Z,17.10
2017-05-03T15:39:29.650Z,17.60
2017-05-03T15:41:58.873Z,17.70
2017-05-03T15:44:28.109Z,17.40
2017-05-03T15:46:57.301Z,17.60
2017-05-03T15:49:26.527Z,18.20
2017-05-03T15:51:55.718Z,18.00
2017-05-03T15:54:24.903Z,18.50
2017-05-03T15:56:54.119Z,18.80
2017-05-03T15:59:23.313Z,19.10
2017-05-03T16:01:52.534Z,17.80
2017-05-03T16:04:21.728Z,16.20
2017-05-03T16:06:50.923Z,16.10
2017-05-03T16:09:20.887Z,15.60
2017-05-03T16:11:50.188Z,15.60
2017-05-03T16:14:19.367Z,15.10
2017-05-03T16:16:48.576Z,14.60
2017-05-03T16:19:17.875Z,14.50
2017-05-03T16:21:47.052Z,14.30
2017-05-03T16:24:16.275Z,13.90
2017-05-03T16:26:45.730Z,13.70
2017-05-03T16:29:15.619Z,13.60
2017-05-03T16:31:44.870Z,13.60
2017-05-03T16:34:14.063Z,13.50
2017-05-03T16:36:43.311Z,13.50
2017-05-03T16:39:12.504Z,13.50
2017-05-03T16:41:41.821Z,13.60
2017-05-03T16:44:11.095Z,13.30
2017-05-03T16:46:40.348Z,13.10
2017-05-03T16:49:09.617Z,13.00
2017-05-03T16:51:38.807Z,13.10
2017-05-03T16:54:08.032Z,13.20
2017-05-03T16:56:37.246Z,13.10
2017-05-03T16:59:06.471Z,13.10
2017-05-03T17:01:35.759Z,12.90
2017-05-03T17:04:04.967Z,13.50
2017-05-03T17:06:34.185Z,12.90
2017-05-03T17:09:03.401Z,12.90
2017-05-03T17:11:32.589Z,12.80
2017-05-03T17:14:01.829Z,12.90
2017-05-03T17:16:31.521Z,13.30
2017-05-03T17:19:00.749Z,13.40
2017-05-03T17:21:30.051Z,13.40
2017-05-03T17:23:59.240Z,13.60
2017-05-03T17:26:28.464Z,13.70
2017-05-03T17:28:58.396Z,13.60
2017-05-03T17:31:27.627Z,13.70
2017-05-03T17:33:56.847Z,13.70
2017-05-03T17:36:26.075Z,13.70
2017-05-03T17:38:56.491Z,13.60
2017-05-03T17:41:25.711Z,13.40
2017-05-03T17:43:55.679Z,13.20
2017-05-03T17:46:24.899Z,13.20
2017-05-03T17:48:54.106Z,13.20
2017-05-03T17:51:23.302Z,13.20
2017-05-03T17:53:52.556Z,13.00
2017-05-03T17:56:21.774Z,12.90
2017-05-03T17:58:50.980Z,12.80
2017-05-03T18:01:20.196Z,12.60
2017-05-03T18:03:49.412Z,12.60
2017-05-03T18:06:19.593Z,12.40
2017-05-03T18:08:48.839Z,12.40
2017-05-03T18:11:18.783Z,12.20
2017-05-03T18:13:48.131Z,12.10
2017-05-03T18:16:17.355Z,12.10
2017-05-03T18:18:47.315Z,12.00
2017-05-03T18:21:16.553Z,11.90
2017-05-03T18:23:45.745Z,12.00
2017-05-03T18:26:14.934Z,11.90
2017-05-03T18:28:44.165Z,11.90
2017-05-03T18:31:13.379Z,11.80
2017-05-03T18:33:42.587Z,11.80
2017-05-03T18:36:12.060Z,11.80
2017-05-03T18:38:41.279Z,11.70
2017-05-03T18:41:10.499Z,11.60
2017-05-03T18:43:39.714Z,11.50
2017-05-03T18:46:08.946Z,11.40
2017-05-03T18:48:38.155Z,11.30
2017-05-03T18:51:07.380Z,11.20
2017-05-03T18:53:37.330Z,11.10
2017-05-03T18:56:06.560Z,10.90
2017-05-03T18:58:35.770Z,10.70
2017-05-03T19:01:04.980Z,10.50
2017-05-03T19:03:34.163Z,10.50
2017-05-03T19:06:03.427Z,10.50
2017-05-03T19:08:32.660Z,10.40
2017-05-03T19:11:01.861Z,10.30
2017-05-03T19:13:31.104Z,10.30
2017-05-03T19:16:00.303Z,10.20
2017-05-03T19:18:29.544Z,10.20
2017-05-03T19:20:58.748Z,10.20
2017-05-03T19:23:28.667Z,10.10
2017-05-03T19:25:57.909Z,10.00
2017-05-03T19:28:27.125Z,9.90
2017-05-03T19:30:56.316Z,9.80
2017-05-03T19:33:25.519Z,9.80
2017-05-03T19:35:54.779Z,9.70
2017-05-03T19:38:23.976Z,9.70
2017-05-03T19:40:53.210Z,9.50
2017-05-03T19:43:22.420Z,9.40
2017-05-03T19:45:52.350Z,9.30
2017-05-03T19:48:21.594Z,9.40
2017-05-03T19:50:50.829Z,9.40
2017-05-03T19:53:20.824Z,9.30
2017-05-03T19:55:50.069Z,9.40
2017-05-03T19:58:19.969Z,9.30
2017-05-03T20:00:49.955Z,9.20
2017-05-03T20:03:19.181Z,9.30
2017-05-03T20:05:49.132Z,9.20
2017-05-03T20:08:18.357Z,9.20
2017-05-03T20:10:47.198Z,9.20
2017-05-03T20:13:16.384Z,9.10
2017-05-03T20:15:46.356Z,9.00
2017-05-03T20:18:15.539Z,9.00
2017-05-03T20:20:44.729Z,8.90
2017-05-03T20:23:13.947Z,8.90
2017-05-03T20:25:43.136Z,8.80
2017-05-03T20:28:12.441Z,8.80
2017-05-03T20:30:41.639Z,8.70
2017-05-03T20:33:10.831Z,8.70
2017-05-03T20:35:40.057Z,8.60
2017-05-03T20:38:09.264Z,8.50
2017-05-03T20:40:38.504Z,8.50
2017-05-03T20:43:08.477Z,8.50
2017-05-03T20:45:37.695Z,8.60
2017-05-03T20:48:06.909Z,8.60
2017-05-03T20:50:36.850Z,8.50
2017-05-03T20:53:06.087Z,8.60
2017-05-03T20:55:35.396Z,8.60
2017-05-03T20:58:04.606Z,8.60
2017-05-03T21:00:33.812Z,8.60
2017-05-03T21:03:03.049Z,8.60
2017-05-03T21:05:32.255Z,8.60
2017-05-03T21:08:01.570Z,8.50
2017-05-03T21:10:30.771Z,8.40
2017-05-03T21:12:59.981Z,8.40
2017-05-03T21:15:29.189Z,8.30
2017-05-03T21:17:58.399Z,8.20
2017-05-03T21:20:27.598Z,8.10
2017-05-03T21:22:56.823Z,8.00
2017-05-03T21:25:26.744Z,8.00
2017-05-03T21:27:56.695Z,7.90
2017-05-03T21:30:25.931Z,7.90
2017-05-03T21:32:55.129Z,7.90
2017-05-03T21:35:24.331Z,7.90
2017-05-03T21:37:53.548Z,7.80
2017-05-03T21:40:22.762Z,7.80
2017-05-03T21:42:52.709Z,7.80
2017-05-03T21:45:21.934Z,7.80
2017-05-03T21:47:51.152Z,7.70
2017-05-03T21:50:20.344Z,7.70
2017-05-03T21:52:49.560Z,7.50
2017-05-03T21:55:18.753Z,7.50
2017-05-03T21:57:47.624Z,7.40
2017-05-03T22:00:16.819Z,7.40
2017-05-03T22:02:46.035Z,7.30
2017-05-03T22:05:15.259Z,7.30
2017-05-03T22:07:45.197Z,7.20
2017-05-03T22:10:14.453Z,7.20
2017-05-03T22:12:43.664Z,7.00
2017-05-03T22:15:12.875Z,7.10
2017-05-03T22:17:42.775Z,7.00
2017-05-03T22:20:11.979Z,7.00
2017-05-03T22:22:41.194Z,6.90
2017-05-03T22:25:11.133Z,6.90
2017-05-03T22:27:40.479Z,7.00
2017-05-03T22:30:09.692Z,7.00
2017-05-03T22:32:38.898Z,7.10
2017-05-03T22:35:08.115Z,7.10
2017-05-03T22:37:38.059Z,7.10
2017-05-03T22:40:07.307Z,7.10
2017-05-03T22:42:36.518Z,7.10
2017-05-03T22:45:05.723Z,7.00
2017-05-03T22:47:35.676Z,6.80
2017-05-03T22:50:04.867Z,6.80
2017-05-03T22:52:34.144Z,6.70
2017-05-03T22:55:04.071Z,6.70
2017-05-03T22:57:34.035Z,6.70
2017-05-03T23:00:03.238Z,6.80
2017-05-03T23:02:32.436Z,6.70
2017-05-03T23:05:01.662Z,6.60
2017-05-03T23:07:30.937Z,6.50
2017-05-03T23:10:00.139Z,6.50
2017-05-03T23:12:29.359Z,6.40
2017-05-03T23:14:58.539Z,6.30
2017-05-03T23:17:27.818Z,6.20
2017-05-03T23:19:57.013Z,6.20
2017-05-03T23:22:26.191Z,6.20
2017-05-03T23:24:55.428Z,6.40
2017-05-03T23:27:24.619Z,6.40
2017-05-03T23:29:53.811Z,6.40
2017-05-03T23:32:23.021Z,6.30
2017-05-03T23:34:52.264Z,6.30
2017-05-03T23:37:21.486Z,6.40
2017-05-03T23:39:50.679Z,6.30
2017-05-03T23:42:20.746Z,6.10
2017-05-03T23:44:50.047Z,6.10
2017-05-03T23:47:19.262Z,6.10
2017-05-03T23:49:48.475Z,6.10
2017-05-03T23:52:17.698Z,6.00
2017-05-03T23:54:47.650Z,6.00
2017-05-03T23:57:16.873Z,6.00
2017-05-03T23:59:46.343Z,6.00
